sensor_id;sensor_type;location;lat;lon;timestamp;pressure;altitude;pressure_sealevel;temperature;humidity
72570;BME280;60594;50.204;8.844;2023-05-23T00:01:05;99766.38;;;18.30;88.05
72570;BME280;60594;50.204;8.844;2023-05-23T00:03:35;99764.00;;;18.35;87.70
72570;BME280;60594;50.204;8.844;2023-05-23T00:06:05;99769.41;;;18.35;87.38
72570;BME280;60594;50.204;8.844;2023-05-23T00:08:33;99765.88;;;18.35;87.35
72570;BME280;60594;50.204;8.844;2023-05-23T00:10:59;99767.69;;;18.34;87.37
72570;BME280;60594;50.204;8.844;2023-05-23T00:13:26;99761.84;;;18.31;86.84
72570;BME280;60594;50.204;8.844;2023-05-23T00:15:55;99755.78;;;18.29;86.88
72570;BME280;60594;50.204;8.844;2023-05-23T00:18:22;99760.03;;;18.23;86.83
72570;BME280;60594;50.204;8.844;2023-05-23T00:20:50;99753.50;;;18.18;87.44
72570;BME280;60594;50.204;8.844;2023-05-23T00:23:17;99760.59;;;18.19;87.04
72570;BME280;60594;50.204;8.844;2023-05-23T00:25:47;99760.41;;;18.20;86.92
72570;BME280;60594;50.204;8.844;2023-05-23T00:28:18;99763.75;;;18.22;87.16
72570;BME280;60594;50.204;8.844;2023-05-23T00:30:45;99762.91;;;18.22;86.77
72570;BME280;60594;50.204;8.844;2023-05-23T00:33:12;99767.84;;;18.18;88.80
72570;BME280;60594;50.204;8.844;2023-05-23T00:35:42;99769.34;;;17.98;90.06
72570;BME280;60594;50.204;8.844;2023-05-23T00:38:09;99775.59;;;17.99;90.15
72570;BME280;60594;50.204;8.844;2023-05-23T00:40:36;99774.28;;;17.95;89.64
72570;BME280;60594;50.204;8.844;2023-05-23T00:43:04;99771.41;;;17.96;88.65
72570;BME280;60594;50.204;8.844;2023-05-23T00:45:31;99775.59;;;17.99;88.67
72570;BME280;60594;50.204;8.844;2023-05-23T00:47:58;99778.09;;;18.00;87.96
72570;BME280;60594;50.204;8.844;2023-05-23T00:50:25;99772.81;;;18.07;88.30
72570;BME280;60594;50.204;8.844;2023-05-23T00:52:57;99780.03;;;18.14;86.59
72570;BME280;60594;50.204;8.844;2023-05-23T00:55:26;99781.50;;;18.17;86.49
72570;BME280;60594;50.204;8.844;2023-05-23T00:57:54;99786.72;;;18.18;86.78
72570;BME280;60594;50.204;8.844;2023-05-23T01:00:23;99781.88;;;18.14;86.84
72570;BME280;60594;50.204;8.844;2023-05-23T01:02:50;99792.84;;;18.12;87.13
72570;BME280;60594;50.204;8.844;2023-05-23T01:05:18;99786.50;;;18.05;87.60
72570;BME280;60594;50.204;8.844;2023-05-23T01:07:45;99789.75;;;18.01;87.16
72570;BME280;60594;50.204;8.844;2023-05-23T01:10:14;99793.41;;;17.85;89.04
72570;BME280;60594;50.204;8.844;2023-05-23T01:16:04;99805.38;;;17.83;88.20
72570;BME280;60594;50.204;8.844;2023-05-23T01:18:42;99803.69;;;17.82;88.58
72570;BME280;60594;50.204;8.844;2023-05-23T01:21:15;99802.00;;;17.81;88.29
72570;BME280;60594;50.204;8.844;2023-05-23T01:32:10;99796.88;;;17.94;87.34
72570;BME280;60594;50.204;8.844;2023-05-23T01:34:39;99800.94;;;17.90;87.60
72570;BME280;60594;50.204;8.844;2023-05-23T01:37:10;99803.31;;;17.85;88.13
72570;BME280;60594;50.204;8.844;2023-05-23T01:39:40;99799.56;;;17.94;87.69
72570;BME280;60594;50.204;8.844;2023-05-23T01:42:07;99803.25;;;17.93;88.24
72570;BME280;60594;50.204;8.844;2023-05-23T01:44:37;99805.25;;;17.99;87.48
72570;BME280;60594;50.204;8.844;2023-05-23T01:47:07;99798.66;;;18.01;87.55
72570;BME280;60594;50.204;8.844;2023-05-23T01:49:36;99800.53;;;18.01;87.73
72570;BME280;60594;50.204;8.844;2023-05-23T01:52:04;99803.41;;;17.99;88.60
72570;BME280;60594;50.204;8.844;2023-05-23T01:54:31;99810.59;;;18.07;87.90
72570;BME280;60594;50.204;8.844;2023-05-23T01:57:01;99802.13;;;18.10;87.43
72570;BME280;60594;50.204;8.844;2023-05-23T01:59:29;99804.66;;;18.11;87.63
72570;BME280;60594;50.204;8.844;2023-05-23T02:01:56;99810.75;;;18.05;87.65
72570;BME280;60594;50.204;8.844;2023-05-23T02:04:24;99808.13;;;17.97;88.07
72570;BME280;60594;50.204;8.844;2023-05-23T02:06:51;99815.25;;;17.90;88.39
72570;BME280;60594;50.204;8.844;2023-05-23T02:09:17;99820.53;;;17.84;89.29
72570;BME280;60594;50.204;8.844;2023-05-23T02:11:44;99816.91;;;17.69;89.15
72570;BME280;60594;50.204;8.844;2023-05-23T02:14:31;99833.63;;;17.64;89.10
72570;BME280;60594;50.204;8.844;2023-05-23T02:16:58;99838.03;;;17.57;89.23
72570;BME280;60594;50.204;8.844;2023-05-23T02:19:25;99837.25;;;17.49;89.41
72570;BME280;60594;50.204;8.844;2023-05-23T02:21:52;99823.75;;;17.41;89.48
72570;BME280;60594;50.204;8.844;2023-05-23T02:24:20;99828.00;;;17.35;89.79
72570;BME280;60594;50.204;8.844;2023-05-23T02:26:47;99826.31;;;17.34;89.76
72570;BME280;60594;50.204;8.844;2023-05-23T02:29:13;99837.44;;;17.31;89.82
72570;BME280;60594;50.204;8.844;2023-05-23T02:31:41;99831.91;;;17.25;89.50
72570;BME280;60594;50.204;8.844;2023-05-23T02:34:08;99837.50;;;17.15;90.10
72570;BME280;60594;50.204;8.844;2023-05-23T02:36:34;99841.06;;;17.16;90.05
72570;BME280;60594;50.204;8.844;2023-05-23T02:39:03;99835.31;;;17.11;88.79
72570;BME280;60594;50.204;8.844;2023-05-23T02:41:31;99844.91;;;17.13;88.93
72570;BME280;60594;50.204;8.844;2023-05-23T02:44:01;99850.81;;;17.17;88.75
72570;BME280;60594;50.204;8.844;2023-05-23T02:46:29;99856.03;;;17.18;88.31
72570;BME280;60594;50.204;8.844;2023-05-23T02:48:55;99851.44;;;17.19;88.35
72570;BME280;60594;50.204;8.844;2023-05-23T02:51:22;99859.72;;;17.17;88.29
72570;BME280;60594;50.204;8.844;2023-05-23T02:53:48;99848.13;;;17.17;88.26
72570;BME280;60594;50.204;8.844;2023-05-23T02:56:16;99854.53;;;17.16;88.31
72570;BME280;60594;50.204;8.844;2023-05-23T02:58:44;99848.78;;;17.11;88.27
72570;BME280;60594;50.204;8.844;2023-05-23T03:01:11;99856.69;;;17.12;88.58
72570;BME280;60594;50.204;8.844;2023-05-23T03:03:39;99858.91;;;17.09;89.04
72570;BME280;60594;50.204;8.844;2023-05-23T03:06:07;99854.03;;;17.04;89.15
72570;BME280;60594;50.204;8.844;2023-05-23T03:08:36;99854.91;;;16.88;87.87
72570;BME280;60594;50.204;8.844;2023-05-23T03:11:02;99854.44;;;16.77;88.08
72570;BME280;60594;50.204;8.844;2023-05-23T03:13:30;99860.31;;;16.72;87.53
72570;BME280;60594;50.204;8.844;2023-05-23T03:15:57;99863.84;;;16.65;87.55
72570;BME280;60594;50.204;8.844;2023-05-23T03:18:23;99864.03;;;16.55;87.33
72570;BME280;60594;50.204;8.844;2023-05-23T03:20:50;99864.03;;;16.47;87.41
72570;BME280;60594;50.204;8.844;2023-05-23T03:23:16;99865.06;;;16.46;86.70
72570;BME280;60594;50.204;8.844;2023-05-23T03:25:44;99871.94;;;16.49;87.12
72570;BME280;60594;50.204;8.844;2023-05-23T03:28:11;99866.56;;;16.49;86.53
72570;BME280;60594;50.204;8.844;2023-05-23T03:30:38;99867.06;;;16.52;86.89
72570;BME280;60594;50.204;8.844;2023-05-23T03:33:06;99875.47;;;16.57;86.23
72570;BME280;60594;50.204;8.844;2023-05-23T03:35:33;99881.50;;;16.59;86.29
72570;BME280;60594;50.204;8.844;2023-05-23T03:38:00;99883.38;;;16.43;87.78
72570;BME280;60594;50.204;8.844;2023-05-23T03:40:27;99886.38;;;16.40;88.12
72570;BME280;60594;50.204;8.844;2023-05-23T03:43:20;99882.84;;;16.31;88.46
72570;BME280;60594;50.204;8.844;2023-05-23T03:45:48;99894.25;;;16.33;88.60
72570;BME280;60594;50.204;8.844;2023-05-23T03:48:18;99893.94;;;16.36;88.32
72570;BME280;60594;50.204;8.844;2023-05-23T03:50:47;99894.41;;;16.24;88.99
72570;BME280;60594;50.204;8.844;2023-05-23T03:53:14;99897.25;;;16.22;88.85
72570;BME280;60594;50.204;8.844;2023-05-23T03:55:41;99906.19;;;16.23;88.72
72570;BME280;60594;50.204;8.844;2023-05-23T03:58:09;99909.91;;;16.22;89.34
72570;BME280;60594;50.204;8.844;2023-05-23T04:00:36;99912.75;;;16.20;89.07
72570;BME280;60594;50.204;8.844;2023-05-23T04:03:04;99925.00;;;16.15;89.15
72570;BME280;60594;50.204;8.844;2023-05-23T04:05:31;99929.53;;;16.14;89.44
72570;BME280;60594;50.204;8.844;2023-05-23T04:07:59;99925.31;;;16.12;89.30
72570;BME280;60594;50.204;8.844;2023-05-23T04:10:30;99930.38;;;16.15;89.52
72570;BME280;60594;50.204;8.844;2023-05-23T04:12:58;99926.50;;;16.17;89.39
72570;BME280;60594;50.204;8.844;2023-05-23T04:15:26;99930.72;;;16.20;89.85
72570;BME280;60594;50.204;8.844;2023-05-23T04:18:05;99922.31;;;16.15;90.31
72570;BME280;60594;50.204;8.844;2023-05-23T04:20:35;99938.44;;;16.15;89.00
72570;BME280;60594;50.204;8.844;2023-05-23T04:23:03;99935.91;;;16.13;86.64
72570;BME280;60594;50.204;8.844;2023-05-23T04:25:31;99938.59;;;16.13;86.13
72570;BME280;60594;50.204;8.844;2023-05-23T04:28:11;99952.50;;;16.01;86.84
72570;BME280;60594;50.204;8.844;2023-05-23T04:30:38;99944.28;;;16.02;85.54
72570;BME280;60594;50.204;8.844;2023-05-23T04:33:06;99950.69;;;16.01;85.29
72570;BME280;60594;50.204;8.844;2023-05-23T04:35:33;99953.00;;;16.04;84.96
72570;BME280;60594;50.204;8.844;2023-05-23T04:38:05;99954.72;;;16.05;84.59
72570;BME280;60594;50.204;8.844;2023-05-23T04:40:33;99960.41;;;16.02;84.23
72570;BME280;60594;50.204;8.844;2023-05-23T04:43:19;99966.81;;;16.01;84.53
72570;BME280;60594;50.204;8.844;2023-05-23T04:45:54;99961.06;;;15.96;84.51
72570;BME280;60594;50.204;8.844;2023-05-23T04:48:36;99964.59;;;15.97;84.46
72570;BME280;60594;50.204;8.844;2023-05-23T04:51:04;99961.91;;;15.97;83.65
72570;BME280;60594;50.204;8.844;2023-05-23T04:53:35;99965.97;;;16.01;84.63
72570;BME280;60594;50.204;8.844;2023-05-23T04:56:02;99971.84;;;16.04;84.23
72570;BME280;60594;50.204;8.844;2023-05-23T04:58:31;99970.53;;;16.08;84.60
72570;BME280;60594;50.204;8.844;2023-05-23T05:01:01;99968.50;;;16.10;84.45
72570;BME280;60594;50.204;8.844;2023-05-23T05:03:30;99970.19;;;16.11;83.50
72570;BME280;60594;50.204;8.844;2023-05-23T05:05:58;99970.53;;;16.08;82.62
72570;BME280;60594;50.204;8.844;2023-05-23T05:08:24;99969.50;;;16.01;82.66
72570;BME280;60594;50.204;8.844;2023-05-23T05:10:52;99977.56;;;16.01;83.44
72570;BME280;60594;50.204;8.844;2023-05-23T05:13:21;99972.34;;;16.00;82.54
72570;BME280;60594;50.204;8.844;2023-05-23T05:15:50;99975.53;;;16.03;83.11
72570;BME280;60594;50.204;8.844;2023-05-23T05:18:19;99971.66;;;15.98;81.53
72570;BME280;60594;50.204;8.844;2023-05-23T05:20:50;99981.41;;;15.99;82.16
72570;BME280;60594;50.204;8.844;2023-05-23T05:23:16;99978.53;;;16.00;81.77
72570;BME280;60594;50.204;8.844;2023-05-23T05:25:43;99981.94;;;16.02;82.49
72570;BME280;60594;50.204;8.844;2023-05-23T05:28:10;99986.28;;;16.03;81.77
72570;BME280;60594;50.204;8.844;2023-05-23T05:30:49;99985.81;;;16.08;81.78
72570;BME280;60594;50.204;8.844;2023-05-23T05:33:21;99996.25;;;16.11;82.03
72570;BME280;60594;50.204;8.844;2023-05-23T05:36:12;99997.59;;;16.07;82.65
72570;BME280;60594;50.204;8.844;2023-05-23T05:38:40;99985.13;;;16.06;81.87
72570;BME280;60594;50.204;8.844;2023-05-23T05:41:07;99991.19;;;16.08;81.11
72570;BME280;60594;50.204;8.844;2023-05-23T05:43:36;99997.22;;;16.02;81.04
72570;BME280;60594;50.204;8.844;2023-05-23T05:46:03;100004.94;;;15.97;81.45
72570;BME280;60594;50.204;8.844;2023-05-23T05:48:31;100004.06;;;15.96;81.99
72570;BME280;60594;50.204;8.844;2023-05-23T05:51:02;100010.94;;;15.91;81.86
72570;BME280;60594;50.204;8.844;2023-05-23T05:53:31;100016.63;;;15.88;81.86
72570;BME280;60594;50.204;8.844;2023-05-23T05:55:57;100020.16;;;15.88;81.69
72570;BME280;60594;50.204;8.844;2023-05-23T05:58:24;100027.03;;;15.83;82.18
72570;BME280;60594;50.204;8.844;2023-05-23T06:01:00;100028.34;;;15.79;82.12
72570;BME280;60594;50.204;8.844;2023-05-23T06:03:27;100029.38;;;15.78;82.45
72570;BME280;60594;50.204;8.844;2023-05-23T06:06:01;100027.50;;;15.78;82.07
72570;BME280;60594;50.204;8.844;2023-05-23T06:08:27;100029.22;;;15.79;82.34
72570;BME280;60594;50.204;8.844;2023-05-23T06:10:54;100032.09;;;15.86;81.84
72570;BME280;60594;50.204;8.844;2023-05-23T06:13:26;100031.63;;;15.90;82.29
72570;BME280;60594;50.204;8.844;2023-05-23T06:16:20;100034.66;;;15.95;81.29
72570;BME280;60594;50.204;8.844;2023-05-23T06:18:48;100034.47;;;15.89;83.04
72570;BME280;60594;50.204;8.844;2023-05-23T06:21:17;100033.13;;;15.93;82.18
72570;BME280;60594;50.204;8.844;2023-05-23T06:23:49;100032.47;;;15.99;81.14
72570;BME280;60594;50.204;8.844;2023-05-23T06:26:16;100040.44;;;16.08;82.12
72570;BME280;60594;50.204;8.844;2023-05-23T06:28:43;100038.41;;;16.10;80.34
72570;BME280;60594;50.204;8.844;2023-05-23T06:31:11;100040.59;;;16.07;78.80
72570;BME280;60594;50.204;8.844;2023-05-23T06:33:42;100033.66;;;16.04;79.64
72570;BME280;60594;50.204;8.844;2023-05-23T06:36:10;100036.75;;;16.09;80.34
72570;BME280;60594;50.204;8.844;2023-05-23T06:38:37;100037.41;;;16.11;78.77
72570;BME280;60594;50.204;8.844;2023-05-23T06:41:03;100034.88;;;16.10;79.14
72570;BME280;60594;50.204;8.844;2023-05-23T06:43:33;100029.50;;;16.10;78.09
72570;BME280;60594;50.204;8.844;2023-05-23T06:46:12;100023.81;;;16.21;78.07
72570;BME280;60594;50.204;8.844;2023-05-23T06:48:42;100024.03;;;16.27;78.44
72570;BME280;60594;50.204;8.844;2023-05-23T06:51:10;100026.97;;;16.50;79.48
72570;BME280;60594;50.204;8.844;2023-05-23T06:53:37;100028.38;;;16.62;77.26
72570;BME280;60594;50.204;8.844;2023-05-23T06:56:10;100021.28;;;16.69;76.13
72570;BME280;60594;50.204;8.844;2023-05-23T06:58:48;100021.13;;;16.70;77.95
72570;BME280;60594;50.204;8.844;2023-05-23T07:01:16;100024.00;;;16.85;77.24
72570;BME280;60594;50.204;8.844;2023-05-23T07:03:46;100031.56;;;16.89;75.49
72570;BME280;60594;50.204;8.844;2023-05-23T07:06:14;100031.22;;;16.92;76.32
72570;BME280;60594;50.204;8.844;2023-05-23T07:08:41;100026.69;;;17.01;75.79
72570;BME280;60594;50.204;8.844;2023-05-23T07:11:10;100031.22;;;17.01;75.39
72570;BME280;60594;50.204;8.844;2023-05-23T07:13:39;100032.09;;;17.09;75.01
72570;BME280;60594;50.204;8.844;2023-05-23T07:16:07;100035.78;;;17.16;75.55
72570;BME280;60594;50.204;8.844;2023-05-23T07:18:41;100042.34;;;17.22;76.69
72570;BME280;60594;50.204;8.844;2023-05-23T07:21:09;100042.34;;;17.30;74.24
72570;BME280;60594;50.204;8.844;2023-05-23T07:23:39;100041.00;;;17.34;76.32
72570;BME280;60594;50.204;8.844;2023-05-23T07:26:06;100046.22;;;17.35;77.65
72570;BME280;60594;50.204;8.844;2023-05-23T07:28:49;100046.75;;;17.47;76.75
72570;BME280;60594;50.204;8.844;2023-05-23T07:31:18;100040.34;;;17.48;76.35
72570;BME280;60594;50.204;8.844;2023-05-23T07:33:45;100047.94;;;17.44;75.85
72570;BME280;60594;50.204;8.844;2023-05-23T07:36:18;100045.41;;;17.43;78.36
72570;BME280;60594;50.204;8.844;2023-05-23T07:38:45;100045.59;;;17.41;77.24
72570;BME280;60594;50.204;8.844;2023-05-23T07:41:11;100049.63;;;17.45;77.93
72570;BME280;60594;50.204;8.844;2023-05-23T07:43:39;100054.16;;;17.45;75.06
72570;BME280;60594;50.204;8.844;2023-05-23T07:46:07;100049.94;;;17.50;77.26
72570;BME280;60594;50.204;8.844;2023-05-23T07:48:35;100052.66;;;17.58;75.60
72570;BME280;60594;50.204;8.844;2023-05-23T07:51:10;100056.00;;;17.60;75.74
72570;BME280;60594;50.204;8.844;2023-05-23T07:53:39;100054.16;;;17.61;76.38
72570;BME280;60594;50.204;8.844;2023-05-23T07:56:08;100055.34;;;17.58;75.95
72570;BME280;60594;50.204;8.844;2023-05-23T07:58:41;100053.28;;;17.68;76.91
72570;BME280;60594;50.204;8.844;2023-05-23T08:01:08;100058.00;;;17.66;75.30
72570;BME280;60594;50.204;8.844;2023-05-23T08:03:55;100054.78;;;17.71;75.79
72570;BME280;60594;50.204;8.844;2023-05-23T08:06:29;100058.34;;;17.63;74.75
72570;BME280;60594;50.204;8.844;2023-05-23T08:09:01;100059.88;;;17.58;76.95
72570;BME280;60594;50.204;8.844;2023-05-23T08:11:49;100063.25;;;17.52;76.45
72570;BME280;60594;50.204;8.844;2023-05-23T08:14:15;100063.09;;;17.45;76.49
72570;BME280;60594;50.204;8.844;2023-05-23T08:16:57;100059.53;;;17.45;77.83
72570;BME280;60594;50.204;8.844;2023-05-23T08:19:27;100052.81;;;17.49;78.73
72570;BME280;60594;50.204;8.844;2023-05-23T08:21:54;100055.69;;;17.55;76.50
72570;BME280;60594;50.204;8.844;2023-05-23T08:24:21;100064.91;;;17.69;76.14
72570;BME280;60594;50.204;8.844;2023-05-23T08:26:51;100066.06;;;17.82;77.02
72570;BME280;60594;50.204;8.844;2023-05-23T08:29:18;100068.06;;;17.88;75.19
72570;BME280;60594;50.204;8.844;2023-05-23T08:31:46;100062.13;;;18.01;76.06
72570;BME280;60594;50.204;8.844;2023-05-23T08:34:14;100065.16;;;18.06;73.72
72570;BME280;60594;50.204;8.844;2023-05-23T08:36:42;100066.47;;;18.10;76.11
72570;BME280;60594;50.204;8.844;2023-05-23T08:39:14;100069.84;;;18.12;73.53
72570;BME280;60594;50.204;8.844;2023-05-23T08:41:50;100073.59;;;18.03;75.16
72570;BME280;60594;50.204;8.844;2023-05-23T08:44:18;100078.50;;;17.99;73.69
72570;BME280;60594;50.204;8.844;2023-05-23T08:46:56;100073.75;;;18.01;73.64
72570;BME280;60594;50.204;8.844;2023-05-23T08:49:50;100078.44;;;18.15;75.37
72570;BME280;60594;50.204;8.844;2023-05-23T08:52:28;100079.72;;;18.35;73.81
72570;BME280;60594;50.204;8.844;2023-05-23T08:55:02;100074.78;;;18.47;72.61
72570;BME280;60594;50.204;8.844;2023-05-23T08:57:30;100070.06;;;18.49;71.52
72570;BME280;60594;50.204;8.844;2023-05-23T09:00:06;100073.53;;;18.65;74.22
72570;BME280;60594;50.204;8.844;2023-05-23T09:02:45;100070.72;;;18.81;71.43
72570;BME280;60594;50.204;8.844;2023-05-23T09:05:26;100070.59;;;18.75;70.87
72570;BME280;60594;50.204;8.844;2023-05-23T09:07:53;100065.53;;;18.72;70.53
72570;BME280;60594;50.204;8.844;2023-05-23T09:10:20;100073.75;;;18.56;71.88
72570;BME280;60594;50.204;8.844;2023-05-23T09:12:48;100079.34;;;18.46;73.26
72570;BME280;60594;50.204;8.844;2023-05-23T09:15:15;100071.44;;;18.37;70.86
72570;BME280;60594;50.204;8.844;2023-05-23T09:17:43;100079.72;;;18.27;70.42
72570;BME280;60594;50.204;8.844;2023-05-23T09:20:15;100074.22;;;18.13;70.63
72570;BME280;60594;50.204;8.844;2023-05-23T09:22:49;100071.69;;;18.11;71.29
72570;BME280;60594;50.204;8.844;2023-05-23T09:25:19;100075.09;;;18.13;74.46
72570;BME280;60594;50.204;8.844;2023-05-23T09:27:47;100070.25;;;18.31;73.34
72570;BME280;60594;50.204;8.844;2023-05-23T09:30:24;100070.75;;;18.43;70.48
72570;BME280;60594;50.204;8.844;2023-05-23T09:32:57;100080.53;;;18.44;70.06
72570;BME280;60594;50.204;8.844;2023-05-23T09:35:27;100077.47;;;18.47;69.04
72570;BME280;60594;50.204;8.844;2023-05-23T09:37:57;100080.31;;;18.53;70.16
72570;BME280;60594;50.204;8.844;2023-05-23T09:40:31;100074.75;;;18.55;69.62
72570;BME280;60594;50.204;8.844;2023-05-23T09:43:03;100072.63;;;18.73;71.05
72570;BME280;60594;50.204;8.844;2023-05-23T09:45:31;100078.22;;;18.94;69.55
72570;BME280;60594;50.204;8.844;2023-05-23T09:48:00;100072.66;;;18.95;67.55
72570;BME280;60594;50.204;8.844;2023-05-23T09:50:31;100081.28;;;18.91;68.78
72570;BME280;60594;50.204;8.844;2023-05-23T09:52:59;100080.81;;;18.87;70.31
72570;BME280;60594;50.204;8.844;2023-05-23T09:55:29;100083.38;;;18.81;68.41
72570;BME280;60594;50.204;8.844;2023-05-23T09:57:57;100086.47;;;18.70;69.31
72570;BME280;60594;50.204;8.844;2023-05-23T10:00:25;100098.81;;;18.64;68.65
72570;BME280;60594;50.204;8.844;2023-05-23T10:03:10;100093.69;;;18.47;69.30
72570;BME280;60594;50.204;8.844;2023-05-23T10:05:49;100100.50;;;18.35;70.50
72570;BME280;60594;50.204;8.844;2023-05-23T10:08:26;100110.59;;;18.25;69.74
72570;BME280;60594;50.204;8.844;2023-05-23T10:13:24;100105.28;;;17.93;70.04
72570;BME280;60594;50.204;8.844;2023-05-23T10:16:01;100111.25;;;17.80;71.47
72570;BME280;60594;50.204;8.844;2023-05-23T10:18:36;100111.59;;;17.69;70.93
72570;BME280;60594;50.204;8.844;2023-05-23T10:21:19;100114.59;;;17.74;70.89
72570;BME280;60594;50.204;8.844;2023-05-23T10:23:49;100108.03;;;17.77;72.23
72570;BME280;60594;50.204;8.844;2023-05-23T10:26:18;100114.44;;;17.76;71.31
72570;BME280;60594;50.204;8.844;2023-05-23T10:28:48;100114.75;;;17.81;72.44
72570;BME280;60594;50.204;8.844;2023-05-23T10:31:16;100117.97;;;17.84;71.96
72570;BME280;60594;50.204;8.844;2023-05-23T10:33:56;100120.13;;;17.97;70.39
72570;BME280;60594;50.204;8.844;2023-05-23T10:36:52;100115.53;;;18.13;70.48
72570;BME280;60594;50.204;8.844;2023-05-23T10:39:52;100118.03;;;18.23;69.77
72570;BME280;60594;50.204;8.844;2023-05-23T10:42:48;100116.84;;;18.25;70.12
72570;BME280;60594;50.204;8.844;2023-05-23T10:45:21;100111.59;;;18.40;69.68
72570;BME280;60594;50.204;8.844;2023-05-23T10:47:50;100121.34;;;18.49;69.14
72570;BME280;60594;50.204;8.844;2023-05-23T10:50:30;100120.03;;;18.45;67.42
72570;BME280;60594;50.204;8.844;2023-05-23T10:53:04;100115.13;;;18.40;67.28
72570;BME280;60594;50.204;8.844;2023-05-23T10:55:36;100113.91;;;18.51;67.29
72570;BME280;60594;50.204;8.844;2023-05-23T10:58:16;100124.19;;;18.55;68.54
72570;BME280;60594;50.204;8.844;2023-05-23T11:00:53;100117.59;;;18.58;67.66
72570;BME280;60594;50.204;8.844;2023-05-23T11:03:37;100129.06;;;18.60;69.03
72570;BME280;60594;50.204;8.844;2023-05-23T11:16:59;100138.97;;;18.13;70.69
72570;BME280;60594;50.204;8.844;2023-05-23T11:19:28;100126.34;;;18.05;70.63
72570;BME280;60594;50.204;8.844;2023-05-23T11:22:01;100127.88;;;18.00;70.73
72570;BME280;60594;50.204;8.844;2023-05-23T11:24:53;100139.50;;;18.00;71.02
72570;BME280;60594;50.204;8.844;2023-05-23T11:30:04;100139.81;;;18.05;70.30
72570;BME280;60594;50.204;8.844;2023-05-23T11:32:34;100143.19;;;18.07;70.95
72570;BME280;60594;50.204;8.844;2023-05-23T11:35:03;100143.19;;;18.07;71.56
72570;BME280;60594;50.204;8.844;2023-05-23T11:37:30;100144.03;;;18.16;71.16
72570;BME280;60594;50.204;8.844;2023-05-23T11:39:58;100142.34;;;18.07;71.87
72570;BME280;60594;50.204;8.844;2023-05-23T11:42:25;100133.38;;;18.22;72.35
72570;BME280;60594;50.204;8.844;2023-05-23T11:44:56;100139.25;;;18.34;70.77
72570;BME280;60594;50.204;8.844;2023-05-23T11:47:24;100152.41;;;18.45;69.94
72570;BME280;60594;50.204;8.844;2023-05-23T11:49:51;100144.09;;;18.54;68.91
72570;BME280;60594;50.204;8.844;2023-05-23T11:52:17;100149.59;;;18.69;69.14
72570;BME280;60594;50.204;8.844;2023-05-23T11:54:44;100159.72;;;18.75;66.98
72570;BME280;60594;50.204;8.844;2023-05-23T11:57:12;100145.69;;;18.71;67.36
72570;BME280;60594;50.204;8.844;2023-05-23T11:59:39;100159.88;;;18.73;67.38
72570;BME280;60594;50.204;8.844;2023-05-23T12:02:06;100153.31;;;18.68;69.44
72570;BME280;60594;50.204;8.844;2023-05-23T12:04:37;100155.63;;;18.79;68.06
72570;BME280;60594;50.204;8.844;2023-05-23T12:07:05;100157.34;;;18.72;67.98
72570;BME280;60594;50.204;8.844;2023-05-23T12:09:43;100155.00;;;18.69;66.28
72570;BME280;60594;50.204;8.844;2023-05-23T12:12:11;100153.72;;;18.57;68.12
72570;BME280;60594;50.204;8.844;2023-05-23T12:14:38;100147.31;;;18.50;69.36
72570;BME280;60594;50.204;8.844;2023-05-23T12:17:12;100147.00;;;18.45;68.69
72570;BME280;60594;50.204;8.844;2023-05-23T12:19:39;100156.41;;;18.57;66.96
72570;BME280;60594;50.204;8.844;2023-05-23T12:22:06;100155.91;;;18.53;66.66
72570;BME280;60594;50.204;8.844;2023-05-23T12:24:33;100159.97;;;18.49;67.83
72570;BME280;60594;50.204;8.844;2023-05-23T12:27:01;100165.19;;;18.51;68.59
72570;BME280;60594;50.204;8.844;2023-05-23T12:29:30;100164.00;;;18.53;68.92
72570;BME280;60594;50.204;8.844;2023-05-23T12:31:58;100166.03;;;18.51;68.64
72570;BME280;60594;50.204;8.844;2023-05-23T12:34:24;100158.63;;;18.45;70.60
72570;BME280;60594;50.204;8.844;2023-05-23T12:36:58;100154.25;;;18.44;69.15
72570;BME280;60594;50.204;8.844;2023-05-23T12:39:29;100168.53;;;18.61;66.71
72570;BME280;60594;50.204;8.844;2023-05-23T12:42:06;100161.94;;;18.63;68.91
72570;BME280;60594;50.204;8.844;2023-05-23T12:44:34;100164.94;;;18.76;66.01
72570;BME280;60594;50.204;8.844;2023-05-23T12:47:04;100159.34;;;18.78;68.22
72570;BME280;60594;50.204;8.844;2023-05-23T12:49:39;100164.56;;;18.79;68.59
72570;BME280;60594;50.204;8.844;2023-05-23T12:52:06;100162.50;;;18.89;68.33
72570;BME280;60594;50.204;8.844;2023-05-23T12:54:33;100164.50;;;18.95;67.09
72570;BME280;60594;50.204;8.844;2023-05-23T12:56:59;100166.03;;;18.90;67.89
72570;BME280;60594;50.204;8.844;2023-05-23T12:59:25;100171.16;;;18.77;68.42
72570;BME280;60594;50.204;8.844;2023-05-23T13:01:52;100165.53;;;18.56;66.41
72570;BME280;60594;50.204;8.844;2023-05-23T13:04:19;100170.44;;;18.44;67.03
72570;BME280;60594;50.204;8.844;2023-05-23T13:06:45;100168.25;;;18.32;67.11
72570;BME280;60594;50.204;8.844;2023-05-23T13:09:12;100179.41;;;18.21;67.14
72570;BME280;60594;50.204;8.844;2023-05-23T13:11:40;100173.00;;;18.22;69.28
72570;BME280;60594;50.204;8.844;2023-05-23T13:14:06;100180.59;;;18.18;66.86
72570;BME280;60594;50.204;8.844;2023-05-23T13:16:33;100174.91;;;18.13;68.26
72570;BME280;60594;50.204;8.844;2023-05-23T13:19:01;100185.84;;;18.12;69.45
72570;BME280;60594;50.204;8.844;2023-05-23T13:21:28;100192.91;;;18.21;67.81
72570;BME280;60594;50.204;8.844;2023-05-23T13:23:54;100182.28;;;18.19;68.55
72570;BME280;60594;50.204;8.844;2023-05-23T13:26:21;100181.44;;;18.27;68.74
72570;BME280;60594;50.204;8.844;2023-05-23T13:28:48;100180.25;;;18.29;68.82
72570;BME280;60594;50.204;8.844;2023-05-23T13:31:15;100182.25;;;18.35;66.05
72570;BME280;60594;50.204;8.844;2023-05-23T13:33:42;100180.56;;;18.34;66.47
72570;BME280;60594;50.204;8.844;2023-05-23T13:36:08;100185.81;;;18.36;67.75
72570;BME280;60594;50.204;8.844;2023-05-23T13:38:36;100179.38;;;18.29;66.34